Aviation Digital Data Service (ADDS)

Output produced by METARs form (1505 UTC 29 May 2017)
found at http://www.aviationweather.gov/adds/metars/
 
METAR text: KVIH 291453Z AUTO 22008KT 10SM CLR 21/15 A2998 RMK AO2 SLP144 T02110150 53007 $
Conditions at: KVIH (VICHY/ROLLA , MO, US) observed 1453 UTC 29 May 2017
Temperature: 21.1°C (70°F)
Dewpoint: 15.0°C (59°F) [RH = 68%]
Pressure (altimeter): 29.98 inches Hg (1015.3 mb)
[Sea-level pressure: 1014.4 mb]
Winds: from the SW (220 degrees) at 9 MPH (8 knots; 4.2 m/s)
Visibility: 10 or more miles (16+ km)
Ceiling: at least 12,000 feet AGL
Clouds: sky clear below 12,000 feet AGL
Weather:
SOME DATA ABOVE MAY BE INACCURATE!!!
"$" is an indication the sensor requires maintenance